createdAt,value
2019-03-31T00:02:21.291Z,8.37
2019-03-31T00:04:49.274Z,7.83
2019-03-31T00:07:17.598Z,8.10
2019-03-31T00:09:45.688Z,8.00
2019-03-31T00:12:13.693Z,8.77
2019-03-31T00:14:41.712Z,8.47
2019-03-31T00:17:09.715Z,8.80
2019-03-31T00:19:37.758Z,9.07
2019-03-31T00:22:05.827Z,7.70
2019-03-31T00:24:33.894Z,8.50
2019-03-31T00:27:05.135Z,8.97
2019-03-31T00:29:34.085Z,7.87
2019-03-31T00:32:02.136Z,8.00
2019-03-31T00:34:30.148Z,8.30
2019-03-31T00:36:58.154Z,8.63
2019-03-31T00:39:26.129Z,8.53
2019-03-31T00:41:54.112Z,9.27
2019-03-31T00:44:22.096Z,8.43
2019-03-31T00:46:50.118Z,8.13
2019-03-31T00:49:18.161Z,8.90
2019-03-31T00:51:46.512Z,7.80
2019-03-31T00:54:14.531Z,8.50
2019-03-31T00:56:42.628Z,7.97
2019-03-31T00:59:10.761Z,8.37
2019-03-31T01:01:45.389Z,8.40
2019-03-31T01:04:13.451Z,7.97
2019-03-31T01:06:41.455Z,8.20
2019-03-31T01:09:19.432Z,8.40
2019-03-31T01:11:47.622Z,8.50
2019-03-31T01:14:15.629Z,8.90
2019-03-31T01:16:43.620Z,9.77
2019-03-31T01:19:11.620Z,8.83
2019-03-31T01:21:39.622Z,8.57
2019-03-31T01:24:07.623Z,9.03
2019-03-31T01:26:35.587Z,8.57
2019-03-31T01:29:03.544Z,8.57
2019-03-31T01:31:31.540Z,8.80
2019-03-31T01:33:59.643Z,8.33
2019-03-31T01:36:27.619Z,8.70
2019-03-31T01:38:55.636Z,8.90
2019-03-31T01:41:23.673Z,7.77
2019-03-31T01:43:51.605Z,8.93
2019-03-31T01:46:19.686Z,9.13
2019-03-31T01:48:47.671Z,8.83
2019-03-31T01:51:15.646Z,9.10
2019-03-31T01:53:43.837Z,8.90
2019-03-31T01:56:11.877Z,8.43
2019-03-31T01:58:39.852Z,8.83
2019-03-31T02:01:09.091Z,8.93
2019-03-31T02:03:37.151Z,8.20
2019-03-31T02:06:05.204Z,8.70
2019-03-31T02:08:33.201Z,8.63
2019-03-31T02:11:01.176Z,8.73
2019-03-31T02:13:29.284Z,8.53
2019-03-31T02:15:57.470Z,9.33
2019-03-31T02:18:25.482Z,9.03
2019-03-31T02:20:53.600Z,8.40
2019-03-31T02:23:21.613Z,8.60
2019-03-31T02:25:49.575Z,8.97
2019-03-31T02:28:17.644Z,9.20
2019-03-31T02:30:45.536Z,8.50
2019-03-31T02:33:13.505Z,8.73
2019-03-31T02:35:41.525Z,9.13
2019-03-31T02:38:09.519Z,8.90
2019-03-31T02:40:37.486Z,9.17
2019-03-31T02:43:05.453Z,9.43
2019-03-31T02:45:33.445Z,8.97
2019-03-31T02:48:01.418Z,8.73
2019-03-31T02:50:39.653Z,9.13
2019-03-31T02:53:07.645Z,9.73
2019-03-31T02:55:36.084Z,8.87
2019-03-31T02:58:04.085Z,8.77
2019-03-31T03:00:32.056Z,9.27
2019-03-31T03:03:00.025Z,9.70
2019-03-31T03:05:28.012Z,9.03
2019-03-31T03:07:55.976Z,9.27
2019-03-31T03:10:23.951Z,8.93
2019-03-31T03:12:51.944Z,8.90
2019-03-31T03:15:26.519Z,8.87
2019-03-31T03:17:54.506Z,8.73
2019-03-31T03:20:22.485Z,9.03
2019-03-31T03:22:50.439Z,9.17
2019-03-31T03:25:18.413Z,9.20
2019-03-31T03:27:46.381Z,9.50
2019-03-31T03:30:14.356Z,9.77
2019-03-31T03:33:11.042Z,9.33
2019-03-31T03:35:10.321Z,9.03
2019-03-31T03:37:38.292Z,8.80
2019-03-31T03:40:06.277Z,9.37
2019-03-31T03:42:34.249Z,8.57
2019-03-31T03:45:02.226Z,8.33
2019-03-31T03:47:30.224Z,8.80
2019-03-31T03:49:58.198Z,8.47
2019-03-31T03:52:26.183Z,8.77
2019-03-31T03:54:54.170Z,9.43
2019-03-31T03:57:22.596Z,8.67
2019-03-31T03:59:50.580Z,9.00
2019-03-31T04:02:18.567Z,9.00
2019-03-31T04:04:46.537Z,8.10
2019-03-31T04:07:14.500Z,9.43
2019-03-31T04:09:42.585Z,8.97
2019-03-31T04:12:10.470Z,9.10
2019-03-31T04:14:38.425Z,9.43
2019-03-31T04:17:06.411Z,8.80
2019-03-31T04:19:34.377Z,8.70
2019-03-31T04:22:02.355Z,8.97
2019-03-31T04:24:32.725Z,9.33
2019-03-31T04:27:00.894Z,9.50
2019-03-31T04:29:28.901Z,9.17
2019-03-31T04:31:56.895Z,8.73
2019-03-31T04:34:24.983Z,9.70
2019-03-31T04:36:52.867Z,10.20
2019-03-31T04:39:20.840Z,9.60
2019-03-31T04:41:48.808Z,9.93
2019-03-31T04:44:16.774Z,9.57
2019-03-31T04:46:44.760Z,9.50
2019-03-31T04:49:12.725Z,10.13
2019-03-31T04:51:40.687Z,9.17
2019-03-31T04:54:08.673Z,9.70
2019-03-31T04:56:36.647Z,9.80
2019-03-31T04:59:05.989Z,10.07
2019-03-31T05:01:33.995Z,9.83
2019-03-31T05:04:05.157Z,9.70
2019-03-31T05:06:29.939Z,9.53
2019-03-31T05:08:57.945Z,9.17
2019-03-31T05:11:25.919Z,9.53
2019-03-31T05:13:53.889Z,9.43
2019-03-31T05:16:21.872Z,9.77
2019-03-31T05:18:49.851Z,9.67
2019-03-31T05:21:17.819Z,9.23
2019-03-31T05:23:45.806Z,8.87
2019-03-31T05:26:13.785Z,9.80
2019-03-31T05:28:44.186Z,9.27
2019-03-31T05:31:09.776Z,9.17
2019-03-31T05:33:37.740Z,9.70
2019-03-31T05:36:05.705Z,9.93
2019-03-31T05:38:33.688Z,9.83
2019-03-31T05:41:01.657Z,10.00
2019-03-31T05:43:29.632Z,9.83
2019-03-31T05:45:57.619Z,10.00
2019-03-31T05:48:25.700Z,9.97
2019-03-31T05:50:53.668Z,10.33
2019-03-31T05:53:21.668Z,10.30
2019-03-31T05:55:49.636Z,10.17
2019-03-31T05:58:17.609Z,9.93
2019-03-31T06:00:48.199Z,10.43
2019-03-31T06:03:16.172Z,9.90
2019-03-31T06:05:44.176Z,10.13
2019-03-31T06:08:12.176Z,10.07
2019-03-31T06:10:40.178Z,10.30
2019-03-31T06:13:08.143Z,9.57
2019-03-31T06:15:36.136Z,10.83
2019-03-31T06:18:04.103Z,10.13
2019-03-31T06:20:32.096Z,10.20
2019-03-31T06:23:00.080Z,10.27
2019-03-31T06:25:28.044Z,10.63
2019-03-31T06:27:56.122Z,9.63
2019-03-31T06:30:24.133Z,10.20
2019-03-31T06:32:55.346Z,9.17
2019-03-31T06:35:20.105Z,9.43
2019-03-31T06:37:48.105Z,9.77
2019-03-31T06:40:16.075Z,10.53
2019-03-31T06:42:44.059Z,9.90
2019-03-31T06:45:12.063Z,10.27
2019-03-31T06:47:40.040Z,10.70
2019-03-31T06:50:08.148Z,11.37
2019-03-31T06:52:36.144Z,10.43
2019-03-31T06:55:05.068Z,10.63
2019-03-31T06:57:33.050Z,11.27
2019-03-31T07:00:01.027Z,10.43
2019-03-31T07:02:29.193Z,10.67
2019-03-31T07:05:01.076Z,10.43
2019-03-31T07:07:25.160Z,10.00
2019-03-31T07:09:53.123Z,10.30
2019-03-31T07:12:21.102Z,10.77
2019-03-31T07:14:49.215Z,10.33
2019-03-31T07:17:17.188Z,10.50
2019-03-31T07:19:45.160Z,10.93
2019-03-31T07:22:13.148Z,10.53
2019-03-31T07:24:41.124Z,10.37
2019-03-31T07:27:09.104Z,10.47
2019-03-31T07:29:37.095Z,10.37
2019-03-31T07:32:05.082Z,10.67
2019-03-31T07:34:33.084Z,9.57
2019-03-31T07:37:01.060Z,10.77
2019-03-31T07:39:29.493Z,11.10
2019-03-31T07:41:57.202Z,10.50
2019-03-31T07:44:25.017Z,9.87
2019-03-31T07:46:53.048Z,10.70
2019-03-31T07:49:21.128Z,10.33
2019-03-31T07:51:49.134Z,10.30
2019-03-31T07:54:17.125Z,9.67
2019-03-31T07:56:45.099Z,10.20
2019-03-31T07:59:13.206Z,10.43
2019-03-31T08:01:41.072Z,10.20
2019-03-31T08:04:09.235Z,10.63
2019-03-31T08:06:37.216Z,10.20
2019-03-31T08:09:06.348Z,10.07
2019-03-31T08:11:34.496Z,11.00
2019-03-31T08:14:02.563Z,10.53
2019-03-31T08:16:30.577Z,10.53
2019-03-31T08:18:58.583Z,10.90
2019-03-31T08:21:26.580Z,10.70
2019-03-31T08:23:54.552Z,11.53
2019-03-31T08:26:22.619Z,10.57
2019-03-31T08:28:50.608Z,10.97
2019-03-31T08:31:18.584Z,10.43
2019-03-31T08:33:46.570Z,10.40
2019-03-31T08:36:14.565Z,10.07
2019-03-31T08:38:42.577Z,9.77
2019-03-31T08:41:10.553Z,10.60
2019-03-31T08:43:38.574Z,13.27
2019-03-31T08:46:06.568Z,11.17
2019-03-31T08:48:34.548Z,11.90
2019-03-31T08:51:02.569Z,11.67
2019-03-31T08:53:30.542Z,10.87
2019-03-31T08:55:58.604Z,12.07
2019-03-31T08:58:26.603Z,12.47
2019-03-31T09:00:57.704Z,11.77
2019-03-31T09:03:25.681Z,10.93
2019-03-31T09:06:01.590Z,11.00
2019-03-31T09:08:22.902Z,11.90
2019-03-31T09:10:50.889Z,11.83
2019-03-31T09:13:18.876Z,12.40
2019-03-31T09:15:46.848Z,12.00
2019-03-31T09:18:14.819Z,12.60
2019-03-31T09:20:42.831Z,11.57
2019-03-31T09:23:10.824Z,13.03
2019-03-31T09:25:38.879Z,11.63
2019-03-31T09:28:06.885Z,12.67
2019-03-31T09:30:34.966Z,12.33
2019-03-31T09:33:02.961Z,12.60
2019-03-31T09:35:36.276Z,13.13
2019-03-31T09:38:04.281Z,13.47
2019-03-31T09:40:32.287Z,14.20
2019-03-31T09:43:00.332Z,13.63
2019-03-31T09:45:28.318Z,12.50
2019-03-31T09:47:56.288Z,13.43
2019-03-31T09:50:24.281Z,14.17
2019-03-31T09:52:52.291Z,12.93
2019-03-31T09:55:22.967Z,14.07
2019-03-31T09:57:48.275Z,13.80
2019-03-31T10:00:16.314Z,12.90
2019-03-31T10:02:44.285Z,13.77
2019-03-31T10:05:12.265Z,15.33
2019-03-31T10:07:40.960Z,13.80
2019-03-31T10:10:08.978Z,14.30
2019-03-31T10:12:36.975Z,14.67
2019-03-31T10:15:05.843Z,13.53
2019-03-31T10:17:33.808Z,14.30
2019-03-31T10:20:01.805Z,14.50
2019-03-31T10:22:29.764Z,14.13
2019-03-31T10:24:57.728Z,14.97
2019-03-31T10:27:25.736Z,24.63
2019-03-31T10:29:53.712Z,17.00
2019-03-31T10:32:21.687Z,15.73
2019-03-31T10:34:49.673Z,14.60
2019-03-31T10:37:17.639Z,16.10
2019-03-31T10:39:45.656Z,15.90
2019-03-31T10:42:13.639Z,14.87
2019-03-31T10:44:41.644Z,15.13
2019-03-31T10:47:09.629Z,14.43
2019-03-31T10:49:37.631Z,15.10
2019-03-31T10:52:05.632Z,13.93
2019-03-31T10:54:33.592Z,13.90
2019-03-31T10:57:01.580Z,14.03
2019-03-31T10:59:29.556Z,13.73
2019-03-31T11:01:57.565Z,15.40
2019-03-31T11:04:25.620Z,14.23
2019-03-31T11:06:59.539Z,14.13
2019-03-31T11:09:21.808Z,13.50
2019-03-31T11:11:49.790Z,14.33
2019-03-31T11:14:17.787Z,14.73
2019-03-31T11:16:45.784Z,14.17
2019-03-31T11:19:13.802Z,13.30
2019-03-31T11:21:50.164Z,13.47
2019-03-31T11:24:18.200Z,14.63
2019-03-31T11:26:46.175Z,17.03
2019-03-31T11:29:14.156Z,14.57
2019-03-31T11:31:42.137Z,12.07
2019-03-31T11:34:10.132Z,14.07
2019-03-31T11:36:38.128Z,13.10
2019-03-31T11:39:06.550Z,13.10
2019-03-31T11:41:34.523Z,12.77
2019-03-31T11:44:02.524Z,9.53
2019-03-31T11:46:30.561Z,8.80
2019-03-31T11:48:58.545Z,8.43
2019-03-31T11:51:26.516Z,9.67
2019-03-31T11:53:54.515Z,10.37
2019-03-31T11:56:22.489Z,10.33
2019-03-31T11:58:50.459Z,9.23
2019-03-31T12:01:18.450Z,7.67
2019-03-31T12:03:46.475Z,10.10
2019-03-31T12:06:14.473Z,18.70
2019-03-31T12:08:42.473Z,11.53
2019-03-31T12:11:13.071Z,9.37
2019-03-31T12:13:41.052Z,9.90
2019-03-31T12:16:09.091Z,9.63
2019-03-31T12:18:37.096Z,10.07
2019-03-31T12:21:05.084Z,11.37
2019-03-31T12:23:33.076Z,10.67
2019-03-31T12:26:01.051Z,9.87
2019-03-31T12:28:29.086Z,7.40
2019-03-31T12:30:57.072Z,8.73
2019-03-31T12:33:25.056Z,9.33
2019-03-31T12:35:53.037Z,9.10
2019-03-31T12:38:21.036Z,9.80
2019-03-31T12:40:49.020Z,9.70
2019-03-31T12:43:17.040Z,8.00
2019-03-31T12:45:45.056Z,5.93
2019-03-31T12:48:13.031Z,5.80
2019-03-31T12:50:41.063Z,5.33
2019-03-31T12:53:09.069Z,5.57
2019-03-31T12:55:37.052Z,5.60
2019-03-31T12:58:05.049Z,5.80
2019-03-31T13:00:33.042Z,5.67
2019-03-31T13:03:01.010Z,5.37
2019-03-31T13:05:29.022Z,5.40
2019-03-31T13:07:57.138Z,5.47
2019-03-31T13:10:25.026Z,5.80
2019-03-31T13:12:54.312Z,5.37
2019-03-31T13:15:22.323Z,5.30
2019-03-31T13:17:50.299Z,4.90
2019-03-31T13:20:18.358Z,7.53
2019-03-31T13:22:46.293Z,6.50
2019-03-31T13:25:14.264Z,5.90
2019-03-31T13:27:42.303Z,5.20
2019-03-31T13:30:10.332Z,5.90
2019-03-31T13:32:38.321Z,5.70
2019-03-31T13:35:08.464Z,5.67
2019-03-31T13:37:34.352Z,5.20
2019-03-31T13:40:02.380Z,5.77
2019-03-31T13:42:30.374Z,5.13
2019-03-31T13:44:58.376Z,5.80
2019-03-31T13:47:26.369Z,5.00
2019-03-31T13:49:54.349Z,5.60
2019-03-31T13:52:22.404Z,4.53
2019-03-31T13:54:50.392Z,4.87
2019-03-31T13:57:18.639Z,4.30
2019-03-31T13:59:46.420Z,3.83
2019-03-31T14:02:14.449Z,4.53
2019-03-31T14:04:51.424Z,4.17
2019-03-31T14:07:10.459Z,4.00
2019-03-31T14:09:38.429Z,4.13
2019-03-31T14:12:06.748Z,4.63
2019-03-31T14:14:34.994Z,4.33
2019-03-31T14:17:02.952Z,3.93
2019-03-31T14:19:30.945Z,4.43
2019-03-31T14:21:58.947Z,4.03
2019-03-31T14:24:27.247Z,4.13
2019-03-31T14:26:54.916Z,3.83
2019-03-31T14:29:22.907Z,4.50
2019-03-31T14:31:52.162Z,4.27
2019-03-31T14:34:18.969Z,3.77
2019-03-31T14:36:46.965Z,3.90
2019-03-31T14:39:17.098Z,4.27
2019-03-31T14:41:42.946Z,3.50
2019-03-31T14:44:10.940Z,3.67
2019-03-31T14:46:38.934Z,3.20
2019-03-31T14:49:06.922Z,4.17
2019-03-31T14:51:34.916Z,3.60
2019-03-31T14:54:02.934Z,3.33
2019-03-31T14:56:30.933Z,3.27
2019-03-31T14:58:59.006Z,3.87
2019-03-31T15:01:27.002Z,3.37
2019-03-31T15:03:55.021Z,3.80
2019-03-31T15:06:23.016Z,3.30
2019-03-31T15:08:54.623Z,2.83
2019-03-31T15:11:21.946Z,3.43
2019-03-31T15:13:47.544Z,2.70
2019-03-31T15:16:15.773Z,4.00
2019-03-31T15:18:43.796Z,3.40
2019-03-31T15:21:11.844Z,3.00
2019-03-31T15:23:39.853Z,3.10
2019-03-31T15:26:07.819Z,3.40
2019-03-31T15:28:35.839Z,2.93
2019-03-31T15:31:03.865Z,3.10
2019-03-31T15:33:31.865Z,3.77
2019-03-31T15:35:59.868Z,4.73
2019-03-31T15:38:27.831Z,3.20
2019-03-31T15:40:55.796Z,2.83
2019-03-31T15:43:23.796Z,5.83
2019-03-31T15:45:51.779Z,3.97
2019-03-31T15:48:19.767Z,4.43
2019-03-31T15:50:47.795Z,2.60
2019-03-31T15:53:15.776Z,2.90
2019-03-31T15:55:43.764Z,3.10
2019-03-31T15:58:11.775Z,3.40
2019-03-31T16:00:39.748Z,3.13
2019-03-31T16:03:07.741Z,2.90
2019-03-31T16:05:35.747Z,2.73
2019-03-31T16:08:02.690Z,3.03
2019-03-31T16:10:29.641Z,2.90
2019-03-31T16:12:56.708Z,2.70
2019-03-31T16:15:23.627Z,2.60
2019-03-31T16:17:51.852Z,2.67
2019-03-31T16:20:18.815Z,2.63
2019-03-31T16:22:45.731Z,2.63
2019-03-31T16:25:20.912Z,2.40
2019-03-31T16:27:47.824Z,2.93
2019-03-31T16:30:14.773Z,2.40
2019-03-31T16:32:41.721Z,4.10
2019-03-31T16:35:08.657Z,3.63
2019-03-31T16:37:35.580Z,3.13
2019-03-31T16:40:02.722Z,3.43
2019-03-31T16:42:29.656Z,3.13
2019-03-31T16:44:58.309Z,3.43
2019-03-31T16:47:23.549Z,3.20
2019-03-31T16:49:50.474Z,3.10
2019-03-31T16:52:17.381Z,3.10
2019-03-31T16:54:44.312Z,2.93
2019-03-31T16:57:11.246Z,3.40
2019-03-31T16:59:38.229Z,2.77
2019-03-31T17:02:05.164Z,3.30
2019-03-31T17:04:32.116Z,5.77
2019-03-31T17:06:59.046Z,4.53
2019-03-31T17:09:25.988Z,3.20
2019-03-31T17:11:52.924Z,3.40
2019-03-31T17:14:19.848Z,4.07
2019-03-31T17:16:46.838Z,4.03
2019-03-31T17:19:15.204Z,4.13
2019-03-31T17:21:42.134Z,4.30
2019-03-31T17:24:09.057Z,4.13
2019-03-31T17:26:35.997Z,4.37
2019-03-31T17:29:02.913Z,4.40
2019-03-31T17:31:29.857Z,4.37
2019-03-31T17:33:56.785Z,3.77
2019-03-31T17:36:23.712Z,4.00
2019-03-31T17:38:50.666Z,3.73
2019-03-31T17:41:17.580Z,5.80
2019-03-31T17:43:44.495Z,6.80
2019-03-31T17:46:11.436Z,4.77
2019-03-31T17:48:38.361Z,4.23
2019-03-31T17:51:05.349Z,4.00
2019-03-31T17:53:32.294Z,4.20
2019-03-31T17:55:59.213Z,3.70
2019-03-31T17:58:26.131Z,4.00
2019-03-31T18:00:53.060Z,4.00
2019-03-31T18:03:20.008Z,3.70
2019-03-31T18:05:46.921Z,3.57
2019-03-31T18:08:14.118Z,4.10
2019-03-31T18:10:41.404Z,7.90
2019-03-31T18:13:08.646Z,11.97
2019-03-31T18:15:35.608Z,5.63
2019-03-31T18:18:02.537Z,4.40
2019-03-31T18:20:30.936Z,4.53
2019-03-31T18:22:57.888Z,4.17
2019-03-31T18:25:25.153Z,3.73
2019-03-31T18:27:52.090Z,3.60
2019-03-31T18:30:19.277Z,5.50
2019-03-31T18:32:46.480Z,6.10
2019-03-31T18:35:16.578Z,4.50
2019-03-31T18:37:40.484Z,4.27
2019-03-31T18:40:08.266Z,13.00
2019-03-31T18:42:35.220Z,5.93
2019-03-31T18:45:02.234Z,5.30
2019-03-31T18:47:29.176Z,6.57
2019-03-31T18:49:56.548Z,8.53
2019-03-31T18:52:23.480Z,9.13
2019-03-31T18:55:13.808Z,9.57
2019-03-31T18:57:50.881Z,9.70
2019-03-31T19:00:30.054Z,23.07
2019-03-31T19:03:11.324Z,19.50
2019-03-31T19:05:59.768Z,8.97
2019-03-31T19:08:36.202Z,6.20
2019-03-31T19:11:08.991Z,5.40
2019-03-31T19:13:55.964Z,4.60
2019-03-31T19:16:43.889Z,5.23
2019-03-31T19:19:25.461Z,5.50
2019-03-31T19:22:09.116Z,5.77
2019-03-31T19:24:46.152Z,6.63
2019-03-31T19:27:51.078Z,6.00
2019-03-31T19:30:33.516Z,6.20
2019-03-31T19:33:20.865Z,7.23
2019-03-31T19:36:10.245Z,6.57
2019-03-31T19:38:49.837Z,7.90
2019-03-31T19:41:32.643Z,8.10
2019-03-31T19:44:20.170Z,8.27
2019-03-31T19:46:57.241Z,9.20
2019-03-31T19:49:32.616Z,9.30
2019-03-31T19:52:21.008Z,9.53
2019-03-31T19:54:57.385Z,10.13
2019-03-31T19:57:43.949Z,9.73
2019-03-31T20:00:22.132Z,9.00
2019-03-31T20:03:12.424Z,9.57
2019-03-31T20:06:04.133Z,8.83
2019-03-31T20:08:38.782Z,10.37
2019-03-31T20:11:12.914Z,9.67
2019-03-31T20:13:49.050Z,10.73
2019-03-31T20:16:26.162Z,9.57
2019-03-31T20:18:59.131Z,10.13
2019-03-31T20:21:57.959Z,9.97
2019-03-31T20:24:45.834Z,10.27
2019-03-31T20:27:19.505Z,10.70
2019-03-31T20:30:01.089Z,10.83
2019-03-31T20:32:35.303Z,10.23
2019-03-31T20:35:23.067Z,11.27
2019-03-31T20:37:59.821Z,11.23
2019-03-31T20:40:44.760Z,12.40
2019-03-31T20:43:21.820Z,12.07
2019-03-31T20:45:48.775Z,12.67
2019-03-31T20:48:15.740Z,12.63
2019-03-31T20:50:42.674Z,11.83
2019-03-31T20:53:09.644Z,13.43
2019-03-31T20:55:36.587Z,12.87
2019-03-31T20:58:03.565Z,13.27
2019-03-31T21:00:31.920Z,13.43
2019-03-31T21:02:58.903Z,12.97
2019-03-31T21:05:26.090Z,13.37
2019-03-31T21:07:53.032Z,15.10
2019-03-31T21:10:19.994Z,14.33
2019-03-31T21:12:46.903Z,14.00
2019-03-31T21:15:13.857Z,14.87
2019-03-31T21:17:40.796Z,14.77
2019-03-31T21:20:07.708Z,14.90
2019-03-31T21:22:35.365Z,14.87
2019-03-31T21:25:03.791Z,15.63
2019-03-31T21:27:30.718Z,15.90
2019-03-31T21:29:58.517Z,17.00
2019-03-31T21:32:29.713Z,15.10
2019-03-31T21:34:56.624Z,14.93
2019-03-31T21:37:24.065Z,15.03
2019-03-31T21:39:51.645Z,15.37
2019-03-31T21:42:18.616Z,16.63
2019-03-31T21:44:51.124Z,16.53
2019-03-31T21:47:19.548Z,17.03
2019-03-31T21:49:46.516Z,16.30
2019-03-31T21:52:13.456Z,14.83
2019-03-31T21:54:40.945Z,15.87
2019-03-31T21:57:07.839Z,15.27
2019-03-31T21:59:35.016Z,15.93
2019-03-31T22:02:01.936Z,15.37
2019-03-31T22:04:28.848Z,15.70
2019-03-31T22:06:55.768Z,16.23
2019-03-31T22:09:22.716Z,17.37
2019-03-31T22:11:49.641Z,17.33
2019-03-31T22:14:16.578Z,17.40
2019-03-31T22:16:43.510Z,17.53
2019-03-31T22:19:10.436Z,16.50
2019-03-31T22:21:37.385Z,16.90
2019-03-31T22:24:04.309Z,17.70
2019-03-31T22:26:33.733Z,17.40
2019-03-31T22:29:00.679Z,16.60
2019-03-31T22:31:27.584Z,18.60
2019-03-31T22:33:54.520Z,17.43
2019-03-31T22:36:21.444Z,18.00
2019-03-31T22:38:48.956Z,18.47
2019-03-31T22:41:15.897Z,19.53
2019-03-31T22:43:42.827Z,19.90
2019-03-31T22:46:09.752Z,19.37
2019-03-31T22:48:36.672Z,21.00
2019-03-31T22:51:03.644Z,19.37
2019-03-31T22:53:30.558Z,19.73
2019-03-31T22:55:57.479Z,20.47
2019-03-31T22:58:24.422Z,19.17
2019-03-31T23:00:51.366Z,20.53
2019-03-31T23:03:18.296Z,20.93
2019-03-31T23:05:45.248Z,20.57
2019-03-31T23:08:12.172Z,20.37
2019-03-31T23:10:39.112Z,22.47
2019-03-31T23:13:06.072Z,21.20
2019-03-31T23:15:33.019Z,22.67
2019-03-31T23:17:59.944Z,21.87
2019-03-31T23:20:26.881Z,23.40
2019-03-31T23:22:53.791Z,21.97
2019-03-31T23:25:20.708Z,23.27
2019-03-31T23:27:48.832Z,22.53
2019-03-31T23:30:15.753Z,22.27
2019-03-31T23:32:42.680Z,22.20
2019-03-31T23:35:09.664Z,23.57
2019-03-31T23:37:36.633Z,23.53
2019-03-31T23:40:03.802Z,23.33
2019-03-31T23:42:30.742Z,23.20
2019-03-31T23:44:57.685Z,22.97
2019-03-31T23:47:25.215Z,22.67
2019-03-31T23:49:52.156Z,23.93
2019-03-31T23:52:19.084Z,22.77
2019-03-31T23:54:46.000Z,23.57
2019-03-31T23:57:12.921Z,23.50
2019-03-31T23:59:39.856Z,24.83
